sensor_id;sensor_type;location;lat;lon;timestamp;temperature;humidity
66035;HTU21D;52805;51.074;5.842;2022-12-11T00:01:34;3.17;80.76
66035;HTU21D;52805;51.074;5.842;2022-12-11T00:03:59;3.17;80.50
66035;HTU21D;52805;51.074;5.842;2022-12-11T00:06:25;3.17;80.44
66035;HTU21D;52805;51.074;5.842;2022-12-11T00:08:53;3.15;80.33
66035;HTU21D;52805;51.074;5.842;2022-12-11T00:11:20;3.14;80.39
66035;HTU21D;52805;51.074;5.842;2022-12-11T00:13:47;3.15;80.54
66035;HTU21D;52805;51.074;5.842;2022-12-11T00:16:12;3.18;80.35
66035;HTU21D;52805;51.074;5.842;2022-12-11T00:18:38;3.20;80.29
66035;HTU21D;52805;51.074;5.842;2022-12-11T00:21:06;3.19;80.42
66035;HTU21D;52805;51.074;5.842;2022-12-11T00:23:34;3.20;80.51
66035;HTU21D;52805;51.074;5.842;2022-12-11T00:25:59;3.23;80.39
66035;HTU21D;52805;51.074;5.842;2022-12-11T00:28:25;3.24;80.38
66035;HTU21D;52805;51.074;5.842;2022-12-11T00:30:51;3.26;80.20
66035;HTU21D;52805;51.074;5.842;2022-12-11T00:33:16;3.27;80.08
66035;HTU21D;52805;51.074;5.842;2022-12-11T00:35:45;3.28;79.91
66035;HTU21D;52805;51.074;5.842;2022-12-11T00:38:16;3.27;80.11
66035;HTU21D;52805;51.074;5.842;2022-12-11T00:40:43;3.31;80.04
66035;HTU21D;52805;51.074;5.842;2022-12-11T00:43:08;3.30;80.04
66035;HTU21D;52805;51.074;5.842;2022-12-11T00:45:45;3.29;80.15
66035;HTU21D;52805;51.074;5.842;2022-12-11T00:48:12;3.32;80.13
66035;HTU21D;52805;51.074;5.842;2022-12-11T00:50:39;3.36;80.26
66035;HTU21D;52805;51.074;5.842;2022-12-11T00:53:06;3.39;80.04
66035;HTU21D;52805;51.074;5.842;2022-12-11T00:55:37;3.41;79.79
66035;HTU21D;52805;51.074;5.842;2022-12-11T00:58:03;3.41;79.76
66035;HTU21D;52805;51.074;5.842;2022-12-11T01:00:30;3.42;79.66
66035;HTU21D;52805;51.074;5.842;2022-12-11T01:02:55;3.42;79.55
66035;HTU21D;52805;51.074;5.842;2022-12-11T01:05:21;3.39;79.53
66035;HTU21D;52805;51.074;5.842;2022-12-11T01:07:47;3.40;79.32
66035;HTU21D;52805;51.074;5.842;2022-12-11T01:10:12;3.34;79.20
66035;HTU21D;52805;51.074;5.842;2022-12-11T01:15:21;3.27;79.66
66035;HTU21D;52805;51.074;5.842;2022-12-11T01:17:48;3.25;79.89
66035;HTU21D;52805;51.074;5.842;2022-12-11T01:20:15;3.25;79.77
66035;HTU21D;52805;51.074;5.842;2022-12-11T01:22:41;3.21;79.93
66035;HTU21D;52805;51.074;5.842;2022-12-11T01:25:07;3.27;79.74
66035;HTU21D;52805;51.074;5.842;2022-12-11T01:27:35;3.24;79.60
66035;HTU21D;52805;51.074;5.842;2022-12-11T01:30:00;3.24;79.77
66035;HTU21D;52805;51.074;5.842;2022-12-11T01:32:27;3.28;79.69
66035;HTU21D;52805;51.074;5.842;2022-12-11T01:34:53;3.27;79.55
66035;HTU21D;52805;51.074;5.842;2022-12-11T01:37:20;3.27;79.62
66035;HTU21D;52805;51.074;5.842;2022-12-11T01:39:45;3.28;79.75
66035;HTU21D;52805;51.074;5.842;2022-12-11T01:42:17;3.28;79.74
66035;HTU21D;52805;51.074;5.842;2022-12-11T01:47:09;3.29;79.64
66035;HTU21D;52805;51.074;5.842;2022-12-11T01:49:37;3.34;79.72
66035;HTU21D;52805;51.074;5.842;2022-12-11T01:52:24;3.34;79.70
66035;HTU21D;52805;51.074;5.842;2022-12-11T01:54:50;3.35;79.73
66035;HTU21D;52805;51.074;5.842;2022-12-11T01:57:16;3.39;79.74
66035;HTU21D;52805;51.074;5.842;2022-12-11T01:59:45;3.39;79.69
66035;HTU21D;52805;51.074;5.842;2022-12-11T02:02:29;3.45;79.42
66035;HTU21D;52805;51.074;5.842;2022-12-11T02:04:55;3.45;79.29
66035;HTU21D;52805;51.074;5.842;2022-12-11T02:07:21;3.46;79.02
66035;HTU21D;52805;51.074;5.842;2022-12-11T02:09:47;3.43;79.06
66035;HTU21D;52805;51.074;5.842;2022-12-11T02:12:38;3.38;79.12
66035;HTU21D;52805;51.074;5.842;2022-12-11T02:20:44;3.33;79.06
66035;HTU21D;52805;51.074;5.842;2022-12-11T02:23:18;3.34;78.85
66035;HTU21D;52805;51.074;5.842;2022-12-11T02:26:24;3.31;78.85
66035;HTU21D;52805;51.074;5.842;2022-12-11T02:29:00;3.31;78.95
66035;HTU21D;52805;51.074;5.842;2022-12-11T02:36:44;3.33;78.88
66035;HTU21D;52805;51.074;5.842;2022-12-11T02:39:14;3.33;78.92
66035;HTU21D;52805;51.074;5.842;2022-12-11T02:41:49;3.35;78.63
66035;HTU21D;52805;51.074;5.842;2022-12-11T02:44:19;3.32;78.79
66035;HTU21D;52805;51.074;5.842;2022-12-11T02:46:46;3.32;78.76
66035;HTU21D;52805;51.074;5.842;2022-12-11T02:49:12;3.33;78.82
66035;HTU21D;52805;51.074;5.842;2022-12-11T02:51:42;3.32;78.82
66035;HTU21D;52805;51.074;5.842;2022-12-11T02:54:15;3.35;78.90
66035;HTU21D;52805;51.074;5.842;2022-12-11T02:56:46;3.36;78.85
66035;HTU21D;52805;51.074;5.842;2022-12-11T02:59:31;3.39;78.38
66035;HTU21D;52805;51.074;5.842;2022-12-11T03:02:00;3.38;78.45
66035;HTU21D;52805;51.074;5.842;2022-12-11T03:04:28;3.35;78.37
66035;HTU21D;52805;51.074;5.842;2022-12-11T03:06:57;3.32;78.44
66035;HTU21D;52805;51.074;5.842;2022-12-11T03:09:27;3.29;78.66
66035;HTU21D;52805;51.074;5.842;2022-12-11T03:11:53;3.29;78.71
66035;HTU21D;52805;51.074;5.842;2022-12-11T03:14:19;3.28;78.72
66035;HTU21D;52805;51.074;5.842;2022-12-11T03:16:56;3.28;78.69
66035;HTU21D;52805;51.074;5.842;2022-12-11T03:19:34;3.26;78.91
66035;HTU21D;52805;51.074;5.842;2022-12-11T03:22:18;3.30;78.81
66035;HTU21D;52805;51.074;5.842;2022-12-11T03:24:51;3.31;78.81
66035;HTU21D;52805;51.074;5.842;2022-12-11T03:27:27;3.29;78.90
66035;HTU21D;52805;51.074;5.842;2022-12-11T03:30:02;3.30;78.69
66035;HTU21D;52805;51.074;5.842;2022-12-11T03:32:43;3.29;78.79
66035;HTU21D;52805;51.074;5.842;2022-12-11T03:35:12;3.29;78.69
66035;HTU21D;52805;51.074;5.842;2022-12-11T03:37:41;3.27;78.53
66035;HTU21D;52805;51.074;5.842;2022-12-11T03:40:14;3.28;78.61
66035;HTU21D;52805;51.074;5.842;2022-12-11T03:42:45;3.29;78.69
66035;HTU21D;52805;51.074;5.842;2022-12-11T03:45:13;3.33;78.44
66035;HTU21D;52805;51.074;5.842;2022-12-11T03:47:42;3.32;78.35
66035;HTU21D;52805;51.074;5.842;2022-12-11T03:50:10;3.31;78.47
66035;HTU21D;52805;51.074;5.842;2022-12-11T03:52:40;3.34;78.34
66035;HTU21D;52805;51.074;5.842;2022-12-11T03:55:09;3.34;78.45
66035;HTU21D;52805;51.074;5.842;2022-12-11T03:57:37;3.33;78.40
66035;HTU21D;52805;51.074;5.842;2022-12-11T04:00:18;3.34;78.32
66035;HTU21D;52805;51.074;5.842;2022-12-11T04:02:45;3.35;78.17
66035;HTU21D;52805;51.074;5.842;2022-12-11T04:05:31;3.30;78.25
66035;HTU21D;52805;51.074;5.842;2022-12-11T04:07:56;3.32;78.20
66035;HTU21D;52805;51.074;5.842;2022-12-11T04:10:23;3.32;78.05
66035;HTU21D;52805;51.074;5.842;2022-12-11T04:12:48;3.27;78.40
66035;HTU21D;52805;51.074;5.842;2022-12-11T04:15:14;3.31;78.37
66035;HTU21D;52805;51.074;5.842;2022-12-11T04:17:40;3.38;78.25
66035;HTU21D;52805;51.074;5.842;2022-12-11T04:20:24;3.36;78.21
66035;HTU21D;52805;51.074;5.842;2022-12-11T04:23:12;3.34;78.09
66035;HTU21D;52805;51.074;5.842;2022-12-11T04:26:18;3.36;78.25
66035;HTU21D;52805;51.074;5.842;2022-12-11T04:28:45;3.38;78.28
66035;HTU21D;52805;51.074;5.842;2022-12-11T04:31:16;3.43;78.29
66035;HTU21D;52805;51.074;5.842;2022-12-11T04:33:42;3.44;77.99
66035;HTU21D;52805;51.074;5.842;2022-12-11T04:36:09;3.45;77.95
66035;HTU21D;52805;51.074;5.842;2022-12-11T04:38:35;3.46;77.83
66035;HTU21D;52805;51.074;5.842;2022-12-11T04:41:12;3.53;77.27
66035;HTU21D;52805;51.074;5.842;2022-12-11T04:43:38;3.46;77.40
66035;HTU21D;52805;51.074;5.842;2022-12-11T04:46:11;3.45;77.27
66035;HTU21D;52805;51.074;5.842;2022-12-11T04:48:38;3.41;77.40
66035;HTU21D;52805;51.074;5.842;2022-12-11T04:51:05;3.42;77.27
66035;HTU21D;52805;51.074;5.842;2022-12-11T04:53:31;3.41;76.90
66035;HTU21D;52805;51.074;5.842;2022-12-11T04:55:57;3.36;76.92
66035;HTU21D;52805;51.074;5.842;2022-12-11T04:58:24;3.38;76.74
66035;HTU21D;52805;51.074;5.842;2022-12-11T05:00:52;3.39;76.59
66035;HTU21D;52805;51.074;5.842;2022-12-11T05:03:19;3.38;76.70
66035;HTU21D;52805;51.074;5.842;2022-12-11T05:05:50;3.40;76.71
66035;HTU21D;52805;51.074;5.842;2022-12-11T05:08:16;3.40;76.67
66035;HTU21D;52805;51.074;5.842;2022-12-11T05:10:42;3.44;76.45
66035;HTU21D;52805;51.074;5.842;2022-12-11T05:13:08;3.46;76.50
66035;HTU21D;52805;51.074;5.842;2022-12-11T05:15:33;3.48;76.37
66035;HTU21D;52805;51.074;5.842;2022-12-11T05:17:59;3.54;76.47
66035;HTU21D;52805;51.074;5.842;2022-12-11T05:20:25;3.54;75.90
66035;HTU21D;52805;51.074;5.842;2022-12-11T05:22:50;3.47;75.70
66035;HTU21D;52805;51.074;5.842;2022-12-11T05:25:16;3.42;75.80
66035;HTU21D;52805;51.074;5.842;2022-12-11T05:27:42;3.40;75.86
66035;HTU21D;52805;51.074;5.842;2022-12-11T05:30:08;3.43;75.69
66035;HTU21D;52805;51.074;5.842;2022-12-11T05:32:34;3.45;75.50
66035;HTU21D;52805;51.074;5.842;2022-12-11T05:35:00;3.44;74.91
66035;HTU21D;52805;51.074;5.842;2022-12-11T05:37:26;3.35;75.15
66035;HTU21D;52805;51.074;5.842;2022-12-11T05:39:51;3.32;75.37
66035;HTU21D;52805;51.074;5.842;2022-12-11T05:42:17;3.34;75.28
66035;HTU21D;52805;51.074;5.842;2022-12-11T05:44:43;3.33;74.99
66035;HTU21D;52805;51.074;5.842;2022-12-11T05:47:12;3.26;75.04
66035;HTU21D;52805;51.074;5.842;2022-12-11T05:49:38;3.21;75.04
66035;HTU21D;52805;51.074;5.842;2022-12-11T05:52:04;3.23;75.02
66035;HTU21D;52805;51.074;5.842;2022-12-11T05:54:29;3.21;74.89
66035;HTU21D;52805;51.074;5.842;2022-12-11T05:56:55;3.16;75.05
66035;HTU21D;52805;51.074;5.842;2022-12-11T05:59:20;3.17;75.16
66035;HTU21D;52805;51.074;5.842;2022-12-11T06:01:46;3.21;75.15
66035;HTU21D;52805;51.074;5.842;2022-12-11T06:04:12;3.18;75.38
66035;HTU21D;52805;51.074;5.842;2022-12-11T06:06:38;3.23;75.33
66035;HTU21D;52805;51.074;5.842;2022-12-11T06:09:05;3.24;75.43
66035;HTU21D;52805;51.074;5.842;2022-12-11T06:11:32;3.26;75.33
66035;HTU21D;52805;51.074;5.842;2022-12-11T06:14:00;3.28;75.24
66035;HTU21D;52805;51.074;5.842;2022-12-11T06:16:26;3.28;75.02
66035;HTU21D;52805;51.074;5.842;2022-12-11T06:18:52;3.28;74.92
66035;HTU21D;52805;51.074;5.842;2022-12-11T06:21:29;3.29;74.71
66035;HTU21D;52805;51.074;5.842;2022-12-11T06:23:57;3.24;74.74
66035;HTU21D;52805;51.074;5.842;2022-12-11T06:26:23;3.19;74.59
66035;HTU21D;52805;51.074;5.842;2022-12-11T06:28:50;3.14;74.50
66035;HTU21D;52805;51.074;5.842;2022-12-11T06:31:16;3.12;74.74
66035;HTU21D;52805;51.074;5.842;2022-12-11T06:33:42;3.12;74.75
66035;HTU21D;52805;51.074;5.842;2022-12-11T06:36:11;3.15;74.41
66035;HTU21D;52805;51.074;5.842;2022-12-11T06:38:37;3.11;74.42
66035;HTU21D;52805;51.074;5.842;2022-12-11T06:41:04;3.09;74.45
66035;HTU21D;52805;51.074;5.842;2022-12-11T06:43:31;3.03;74.73
66035;HTU21D;52805;51.074;5.842;2022-12-11T06:45:57;3.03;74.67
66035;HTU21D;52805;51.074;5.842;2022-12-11T06:48:24;3.06;74.69
66035;HTU21D;52805;51.074;5.842;2022-12-11T06:50:50;3.01;74.99
66035;HTU21D;52805;51.074;5.842;2022-12-11T06:53:15;3.04;74.86
66035;HTU21D;52805;51.074;5.842;2022-12-11T06:55:41;3.05;74.89
66035;HTU21D;52805;51.074;5.842;2022-12-11T06:58:08;3.04;74.77
66035;HTU21D;52805;51.074;5.842;2022-12-11T07:00:35;3.04;74.94
66035;HTU21D;52805;51.074;5.842;2022-12-11T07:03:01;3.05;74.98
66035;HTU21D;52805;51.074;5.842;2022-12-11T07:05:27;3.05;75.09
66035;HTU21D;52805;51.074;5.842;2022-12-11T07:07:53;3.06;75.16
66035;HTU21D;52805;51.074;5.842;2022-12-11T07:10:19;3.08;74.97
66035;HTU21D;52805;51.074;5.842;2022-12-11T07:12:45;3.06;74.90
66035;HTU21D;52805;51.074;5.842;2022-12-11T07:15:11;3.08;75.15
66035;HTU21D;52805;51.074;5.842;2022-12-11T07:17:36;3.10;75.24
66035;HTU21D;52805;51.074;5.842;2022-12-11T07:20:03;3.14;75.08
66035;HTU21D;52805;51.074;5.842;2022-12-11T07:22:29;3.14;75.08
66035;HTU21D;52805;51.074;5.842;2022-12-11T07:24:54;3.15;75.12
66035;HTU21D;52805;51.074;5.842;2022-12-11T07:27:20;3.17;75.11
66035;HTU21D;52805;51.074;5.842;2022-12-11T07:29:46;3.19;75.03
66035;HTU21D;52805;51.074;5.842;2022-12-11T07:32:12;3.23;75.07
66035;HTU21D;52805;51.074;5.842;2022-12-11T07:34:37;3.26;74.93
66035;HTU21D;52805;51.074;5.842;2022-12-11T07:37:03;3.29;74.69
66035;HTU21D;52805;51.074;5.842;2022-12-11T07:39:29;3.26;74.64
66035;HTU21D;52805;51.074;5.842;2022-12-11T07:41:55;3.28;74.58
66035;HTU21D;52805;51.074;5.842;2022-12-11T07:44:20;3.28;74.80
66035;HTU21D;52805;51.074;5.842;2022-12-11T07:46:46;3.30;74.76
66035;HTU21D;52805;51.074;5.842;2022-12-11T07:49:12;3.31;74.44
66035;HTU21D;52805;51.074;5.842;2022-12-11T07:51:38;3.32;74.51
66035;HTU21D;52805;51.074;5.842;2022-12-11T07:54:06;3.33;74.51
66035;HTU21D;52805;51.074;5.842;2022-12-11T07:56:34;3.36;74.22
66035;HTU21D;52805;51.074;5.842;2022-12-11T07:59:02;3.35;74.26
66035;HTU21D;52805;51.074;5.842;2022-12-11T08:01:33;3.39;74.16
66035;HTU21D;52805;51.074;5.842;2022-12-11T08:04:05;3.39;74.23
66035;HTU21D;52805;51.074;5.842;2022-12-11T08:06:38;3.39;74.31
66035;HTU21D;52805;51.074;5.842;2022-12-11T08:09:08;3.41;74.26
66035;HTU21D;52805;51.074;5.842;2022-12-11T08:11:34;3.42;74.22
66035;HTU21D;52805;51.074;5.842;2022-12-11T08:14:01;3.42;74.15
66035;HTU21D;52805;51.074;5.842;2022-12-11T08:16:27;3.40;73.88
66035;HTU21D;52805;51.074;5.842;2022-12-11T08:18:54;3.41;73.68
66035;HTU21D;52805;51.074;5.842;2022-12-11T08:21:24;3.38;73.49
66035;HTU21D;52805;51.074;5.842;2022-12-11T08:23:52;3.36;73.57
66035;HTU21D;52805;51.074;5.842;2022-12-11T08:26:22;3.38;73.70
66035;HTU21D;52805;51.074;5.842;2022-12-11T08:28:48;3.36;73.76
66035;HTU21D;52805;51.074;5.842;2022-12-11T08:31:15;3.34;73.86
66035;HTU21D;52805;51.074;5.842;2022-12-11T08:33:42;3.33;73.90
66035;HTU21D;52805;51.074;5.842;2022-12-11T08:36:11;3.35;73.92
66035;HTU21D;52805;51.074;5.842;2022-12-11T08:38:37;3.31;74.11
66035;HTU21D;52805;51.074;5.842;2022-12-11T08:41:11;3.35;74.21
66035;HTU21D;52805;51.074;5.842;2022-12-11T08:43:37;3.36;74.03
66035;HTU21D;52805;51.074;5.842;2022-12-11T08:46:03;3.35;74.14
66035;HTU21D;52805;51.074;5.842;2022-12-11T08:48:29;3.38;74.19
66035;HTU21D;52805;51.074;5.842;2022-12-11T08:51:01;3.41;74.19
66035;HTU21D;52805;51.074;5.842;2022-12-11T08:53:30;3.45;74.26
66035;HTU21D;52805;51.074;5.842;2022-12-11T08:56:08;3.54;74.19
66035;HTU21D;52805;51.074;5.842;2022-12-11T08:58:34;3.54;74.10
66035;HTU21D;52805;51.074;5.842;2022-12-11T09:01:09;3.57;74.07
66035;HTU21D;52805;51.074;5.842;2022-12-11T09:03:36;3.60;73.96
66035;HTU21D;52805;51.074;5.842;2022-12-11T09:06:06;3.63;73.79
66035;HTU21D;52805;51.074;5.842;2022-12-11T09:08:32;3.64;73.70
66035;HTU21D;52805;51.074;5.842;2022-12-11T09:11:07;3.70;73.53
66035;HTU21D;52805;51.074;5.842;2022-12-11T09:13:34;3.74;73.67
66035;HTU21D;52805;51.074;5.842;2022-12-11T09:16:10;3.75;73.91
66035;HTU21D;52805;51.074;5.842;2022-12-11T09:18:38;3.77;73.90
66035;HTU21D;52805;51.074;5.842;2022-12-11T09:21:10;3.82;73.59
66035;HTU21D;52805;51.074;5.842;2022-12-11T09:23:38;3.84;73.61
66035;HTU21D;52805;51.074;5.842;2022-12-11T09:26:08;3.87;73.76
66035;HTU21D;52805;51.074;5.842;2022-12-11T09:28:36;3.91;73.79
66035;HTU21D;52805;51.074;5.842;2022-12-11T09:31:10;3.94;73.89
66035;HTU21D;52805;51.074;5.842;2022-12-11T09:33:36;3.97;73.83
66035;HTU21D;52805;51.074;5.842;2022-12-11T09:36:03;3.99;73.79
66035;HTU21D;52805;51.074;5.842;2022-12-11T09:38:30;4.03;73.54
66035;HTU21D;52805;51.074;5.842;2022-12-11T09:40:56;4.06;73.27
66035;HTU21D;52805;51.074;5.842;2022-12-11T09:43:49;4.12;73.29
66035;HTU21D;52805;51.074;5.842;2022-12-11T09:46:16;4.13;73.29
66035;HTU21D;52805;51.074;5.842;2022-12-11T09:48:47;4.16;73.34
66035;HTU21D;52805;51.074;5.842;2022-12-11T09:53:48;4.22;73.40
66035;HTU21D;52805;51.074;5.842;2022-12-11T10:12:36;4.21;73.16
66035;HTU21D;52805;51.074;5.842;2022-12-11T10:15:11;4.20;73.19
66035;HTU21D;52805;51.074;5.842;2022-12-11T10:17:40;4.20;73.02
66035;HTU21D;52805;51.074;5.842;2022-12-11T10:22:56;4.19;72.90
66035;HTU21D;52805;51.074;5.842;2022-12-11T10:25:31;4.15;72.99
66035;HTU21D;52805;51.074;5.842;2022-12-11T10:28:09;4.15;72.92
66035;HTU21D;52805;51.074;5.842;2022-12-11T10:30:40;4.16;73.09
66035;HTU21D;52805;51.074;5.842;2022-12-11T10:35:57;4.19;73.05
66035;HTU21D;52805;51.074;5.842;2022-12-11T10:38:37;4.17;72.83
66035;HTU21D;52805;51.074;5.842;2022-12-11T10:41:17;4.12;72.96
66035;HTU21D;52805;51.074;5.842;2022-12-11T10:43:48;4.10;73.14
66035;HTU21D;52805;51.074;5.842;2022-12-11T10:46:18;4.08;73.20
66035;HTU21D;52805;51.074;5.842;2022-12-11T10:48:46;4.08;73.11
66035;HTU21D;52805;51.074;5.842;2022-12-11T10:51:13;4.06;73.32
66035;HTU21D;52805;51.074;5.842;2022-12-11T10:53:39;4.09;73.30
66035;HTU21D;52805;51.074;5.842;2022-12-11T10:56:05;4.17;73.28
66035;HTU21D;52805;51.074;5.842;2022-12-11T10:58:46;4.24;73.06
66035;HTU21D;52805;51.074;5.842;2022-12-11T11:01:18;4.33;73.07
66035;HTU21D;52805;51.074;5.842;2022-12-11T11:04:22;4.39;72.61
66035;HTU21D;52805;51.074;5.842;2022-12-11T11:07:24;4.42;72.22
66035;HTU21D;52805;51.074;5.842;2022-12-11T11:09:50;4.46;72.08
66035;HTU21D;52805;51.074;5.842;2022-12-11T11:12:26;4.49;71.98
66035;HTU21D;52805;51.074;5.842;2022-12-11T11:15:04;4.54;71.91
66035;HTU21D;52805;51.074;5.842;2022-12-11T11:17:32;4.57;71.78
66035;HTU21D;52805;51.074;5.842;2022-12-11T11:20:12;4.59;71.61
66035;HTU21D;52805;51.074;5.842;2022-12-11T11:22:44;4.61;71.58
66035;HTU21D;52805;51.074;5.842;2022-12-11T11:25:19;4.62;71.41
66035;HTU21D;52805;51.074;5.842;2022-12-11T11:27:55;4.60;71.56
66035;HTU21D;52805;51.074;5.842;2022-12-11T11:30:27;4.60;71.66
66035;HTU21D;52805;51.074;5.842;2022-12-11T11:33:02;4.59;71.65
66035;HTU21D;52805;51.074;5.842;2022-12-11T11:35:31;4.60;71.61
66035;HTU21D;52805;51.074;5.842;2022-12-11T11:38:12;4.58;71.36
66035;HTU21D;52805;51.074;5.842;2022-12-11T11:41:01;4.60;71.28
66035;HTU21D;52805;51.074;5.842;2022-12-11T11:43:37;4.59;71.32
66035;HTU21D;52805;51.074;5.842;2022-12-11T11:46:22;4.59;71.33
66035;HTU21D;52805;51.074;5.842;2022-12-11T11:54:35;4.59;71.31
66035;HTU21D;52805;51.074;5.842;2022-12-11T12:00:27;4.59;70.94
66035;HTU21D;52805;51.074;5.842;2022-12-11T12:02:56;4.61;70.69
66035;HTU21D;52805;51.074;5.842;2022-12-11T12:22:56;4.56;70.82
66035;HTU21D;52805;51.074;5.842;2022-12-11T12:39:38;4.62;70.42
66035;HTU21D;52805;51.074;5.842;2022-12-11T12:45:04;4.64;70.71
66035;HTU21D;52805;51.074;5.842;2022-12-11T12:47:34;4.65;70.64
66035;HTU21D;52805;51.074;5.842;2022-12-11T12:50:02;4.63;70.72
66035;HTU21D;52805;51.074;5.842;2022-12-11T12:52:35;4.61;70.90
66035;HTU21D;52805;51.074;5.842;2022-12-11T12:55:22;4.62;71.03
66035;HTU21D;52805;51.074;5.842;2022-12-11T12:57:58;4.62;70.52
66035;HTU21D;52805;51.074;5.842;2022-12-11T13:00:37;4.53;70.52
66035;HTU21D;52805;51.074;5.842;2022-12-11T13:03:22;4.51;70.57
66035;HTU21D;52805;51.074;5.842;2022-12-11T13:05:55;4.52;70.72
66035;HTU21D;52805;51.074;5.842;2022-12-11T13:08:28;4.53;70.55
66035;HTU21D;52805;51.074;5.842;2022-12-11T13:11:10;4.54;70.61
66035;HTU21D;52805;51.074;5.842;2022-12-11T13:13:40;4.52;70.85
66035;HTU21D;52805;51.074;5.842;2022-12-11T13:18:43;4.56;70.68
66035;HTU21D;52805;51.074;5.842;2022-12-11T13:21:35;4.54;70.81
66035;HTU21D;52805;51.074;5.842;2022-12-11T13:26:37;4.54;70.78
66035;HTU21D;52805;51.074;5.842;2022-12-11T13:29:04;4.52;70.94
66035;HTU21D;52805;51.074;5.842;2022-12-11T13:31:36;4.57;70.96
66035;HTU21D;52805;51.074;5.842;2022-12-11T13:34:15;4.56;70.73
66035;HTU21D;52805;51.074;5.842;2022-12-11T13:36:50;4.54;70.74
66035;HTU21D;52805;51.074;5.842;2022-12-11T13:39:31;4.53;70.91
66035;HTU21D;52805;51.074;5.842;2022-12-11T13:42:04;4.50;70.68
66035;HTU21D;52805;51.074;5.842;2022-12-11T13:44:40;4.45;70.73
66035;HTU21D;52805;51.074;5.842;2022-12-11T13:47:13;4.44;70.81
66035;HTU21D;52805;51.074;5.842;2022-12-11T13:49:43;4.44;71.04
66035;HTU21D;52805;51.074;5.842;2022-12-11T13:52:22;4.44;71.06
66035;HTU21D;52805;51.074;5.842;2022-12-11T13:54:52;4.43;71.14
66035;HTU21D;52805;51.074;5.842;2022-12-11T13:57:21;4.44;71.33
66035;HTU21D;52805;51.074;5.842;2022-12-11T13:59:55;4.46;71.29
66035;HTU21D;52805;51.074;5.842;2022-12-11T14:02:25;4.44;71.32
66035;HTU21D;52805;51.074;5.842;2022-12-11T14:05:03;4.45;71.41
66035;HTU21D;52805;51.074;5.842;2022-12-11T14:07:37;4.44;71.38
66035;HTU21D;52805;51.074;5.842;2022-12-11T14:15:43;4.37;71.58
66035;HTU21D;52805;51.074;5.842;2022-12-11T14:18:21;4.38;71.61
66035;HTU21D;52805;51.074;5.842;2022-12-11T14:20:54;4.39;71.56
66035;HTU21D;52805;51.074;5.842;2022-12-11T14:23:23;4.37;71.58
66035;HTU21D;52805;51.074;5.842;2022-12-11T14:25:59;4.32;71.78
66035;HTU21D;52805;51.074;5.842;2022-12-11T14:28:27;4.35;71.77
66035;HTU21D;52805;51.074;5.842;2022-12-11T14:31:01;4.34;71.84
66035;HTU21D;52805;51.074;5.842;2022-12-11T14:33:34;4.36;71.87
66035;HTU21D;52805;51.074;5.842;2022-12-11T14:36:02;4.37;71.90
66035;HTU21D;52805;51.074;5.842;2022-12-11T14:39:40;4.37;71.95
66035;HTU21D;52805;51.074;5.842;2022-12-11T14:41:52;4.37;71.88
66035;HTU21D;52805;51.074;5.842;2022-12-11T14:44:23;4.37;71.89
66035;HTU21D;52805;51.074;5.842;2022-12-11T14:46:57;4.37;72.04
66035;HTU21D;52805;51.074;5.842;2022-12-11T14:50:00;4.38;71.94
66035;HTU21D;52805;51.074;5.842;2022-12-11T14:52:32;4.37;71.98
66035;HTU21D;52805;51.074;5.842;2022-12-11T14:55:08;4.35;72.12
66035;HTU21D;52805;51.074;5.842;2022-12-11T14:57:39;4.36;72.18
66035;HTU21D;52805;51.074;5.842;2022-12-11T15:00:07;4.33;72.09
66035;HTU21D;52805;51.074;5.842;2022-12-11T15:02:35;4.33;72.17
66035;HTU21D;52805;51.074;5.842;2022-12-11T15:05:15;4.33;72.11
66035;HTU21D;52805;51.074;5.842;2022-12-11T15:08:14;4.34;72.13
66035;HTU21D;52805;51.074;5.842;2022-12-11T15:13:25;4.34;72.21
66035;HTU21D;52805;51.074;5.842;2022-12-11T15:15:53;4.34;72.26
66035;HTU21D;52805;51.074;5.842;2022-12-11T15:18:33;4.35;72.15
66035;HTU21D;52805;51.074;5.842;2022-12-11T15:21:04;4.32;72.15
66035;HTU21D;52805;51.074;5.842;2022-12-11T15:26:11;4.21;72.43
66035;HTU21D;52805;51.074;5.842;2022-12-11T15:28:38;4.20;72.47
66035;HTU21D;52805;51.074;5.842;2022-12-11T15:31:26;4.14;72.45
66035;HTU21D;52805;51.074;5.842;2022-12-11T15:33:52;4.07;72.41
66035;HTU21D;52805;51.074;5.842;2022-12-11T15:36:32;3.99;72.55
66035;HTU21D;52805;51.074;5.842;2022-12-11T15:38:59;3.94;72.66
66035;HTU21D;52805;51.074;5.842;2022-12-11T15:41:26;3.94;72.64
66035;HTU21D;52805;51.074;5.842;2022-12-11T15:43:55;3.93;72.63
66035;HTU21D;52805;51.074;5.842;2022-12-11T15:46:22;3.91;72.64
66035;HTU21D;52805;51.074;5.842;2022-12-11T15:48:49;3.91;72.77
66035;HTU21D;52805;51.074;5.842;2022-12-11T15:51:16;3.90;72.85
66035;HTU21D;52805;51.074;5.842;2022-12-11T15:53:42;3.90;72.85
66035;HTU21D;52805;51.074;5.842;2022-12-11T15:56:14;3.91;72.80
66035;HTU21D;52805;51.074;5.842;2022-12-11T15:58:43;3.90;72.80
66035;HTU21D;52805;51.074;5.842;2022-12-11T16:01:09;3.88;72.82
66035;HTU21D;52805;51.074;5.842;2022-12-11T16:03:35;3.88;72.78
66035;HTU21D;52805;51.074;5.842;2022-12-11T16:06:00;3.88;72.78
66035;HTU21D;52805;51.074;5.842;2022-12-11T16:08:26;3.88;72.84
66035;HTU21D;52805;51.074;5.842;2022-12-11T16:10:53;3.87;72.97
66035;HTU21D;52805;51.074;5.842;2022-12-11T16:13:19;3.88;72.93
66035;HTU21D;52805;51.074;5.842;2022-12-11T16:15:47;3.89;72.88
66035;HTU21D;52805;51.074;5.842;2022-12-11T16:18:22;3.90;72.91
66035;HTU21D;52805;51.074;5.842;2022-12-11T16:20:49;3.93;72.94
66035;HTU21D;52805;51.074;5.842;2022-12-11T16:23:16;3.93;73.03
66035;HTU21D;52805;51.074;5.842;2022-12-11T16:25:44;3.95;73.15
66035;HTU21D;52805;51.074;5.842;2022-12-11T16:28:12;3.97;73.25
66035;HTU21D;52805;51.074;5.842;2022-12-11T16:30:38;4.00;73.27
66035;HTU21D;52805;51.074;5.842;2022-12-11T16:33:05;4.01;73.30
66035;HTU21D;52805;51.074;5.842;2022-12-11T16:35:32;4.02;73.43
66035;HTU21D;52805;51.074;5.842;2022-12-11T16:37:57;4.03;73.32
66035;HTU21D;52805;51.074;5.842;2022-12-11T16:40:23;4.04;73.20
66035;HTU21D;52805;51.074;5.842;2022-12-11T16:42:49;4.05;73.20
66035;HTU21D;52805;51.074;5.842;2022-12-11T16:45:21;4.06;73.22
66035;HTU21D;52805;51.074;5.842;2022-12-11T16:47:47;4.08;73.09
66035;HTU21D;52805;51.074;5.842;2022-12-11T16:50:14;4.09;72.99
66035;HTU21D;52805;51.074;5.842;2022-12-11T16:52:41;4.09;72.96
66035;HTU21D;52805;51.074;5.842;2022-12-11T16:55:08;4.09;72.92
66035;HTU21D;52805;51.074;5.842;2022-12-11T16:57:34;4.09;72.94
66035;HTU21D;52805;51.074;5.842;2022-12-11T17:00:00;4.06;73.03
66035;HTU21D;52805;51.074;5.842;2022-12-11T17:02:26;4.06;73.05
66035;HTU21D;52805;51.074;5.842;2022-12-11T17:04:52;4.07;73.01
66035;HTU21D;52805;51.074;5.842;2022-12-11T17:07:18;4.07;72.99
66035;HTU21D;52805;51.074;5.842;2022-12-11T17:09:44;4.08;72.96
66035;HTU21D;52805;51.074;5.842;2022-12-11T17:12:10;4.07;73.01
66035;HTU21D;52805;51.074;5.842;2022-12-11T17:14:36;4.07;72.96
66035;HTU21D;52805;51.074;5.842;2022-12-11T17:17:02;4.07;73.01
66035;HTU21D;52805;51.074;5.842;2022-12-11T17:19:27;4.06;73.10
66035;HTU21D;52805;51.074;5.842;2022-12-11T17:21:53;4.07;73.09
66035;HTU21D;52805;51.074;5.842;2022-12-11T17:24:20;4.07;73.10
66035;HTU21D;52805;51.074;5.842;2022-12-11T17:26:46;4.07;73.19
66035;HTU21D;52805;51.074;5.842;2022-12-11T17:29:13;4.08;73.13